createdAt,value
2023-05-12T00:00:16.460Z,20.07
2023-05-12T00:00:30.457Z,20.08
2023-05-12T00:00:44.469Z,20.08
2023-05-12T00:00:58.457Z,20.07
2023-05-12T00:01:26.411Z,20.06
2023-05-12T00:01:40.391Z,20.06
2023-05-12T00:01:54.387Z,20.05
2023-05-12T00:02:08.376Z,20.06
2023-05-12T00:02:36.410Z,20.05
2023-05-12T00:02:50.579Z,20.06
2023-05-12T00:03:04.669Z,20.06
2023-05-12T00:03:18.851Z,20.06
2023-05-12T00:03:47.188Z,20.05
2023-05-12T00:04:01.704Z,20.05
2023-05-12T00:04:15.961Z,20.06
2023-05-12T00:04:30.041Z,20.06
2023-05-12T00:04:58.067Z,20.07
2023-05-12T00:05:12.367Z,20.05
2023-05-12T00:05:26.371Z,20.05
2023-05-12T00:05:40.385Z,20.05
2023-05-12T00:06:08.363Z,20.05
2023-05-12T00:06:22.451Z,20.05
2023-05-12T00:06:36.428Z,20.04
2023-05-12T00:06:50.416Z,20.05
2023-05-12T00:07:18.360Z,20.05
2023-05-12T00:07:32.341Z,20.05
2023-05-12T00:07:46.321Z,20.05
2023-05-12T00:08:00.303Z,20.05
2023-05-12T00:08:28.266Z,20.05
2023-05-12T00:08:42.269Z,20.04
2023-05-12T00:08:56.254Z,20.05
2023-05-12T00:09:10.252Z,20.04
2023-05-12T00:09:38.230Z,20.04
2023-05-12T00:09:52.233Z,20.06
2023-05-12T00:10:06.238Z,20.03
2023-05-12T00:10:20.516Z,20.03
2023-05-12T00:10:48.662Z,20.02
2023-05-12T00:11:02.655Z,20.04
2023-05-12T00:11:16.681Z,20.04
2023-05-12T00:11:30.697Z,20.04
2023-05-12T00:11:58.657Z,20.03
2023-05-12T00:12:12.643Z,20.03
2023-05-12T00:12:26.626Z,20.03
2023-05-12T00:12:40.647Z,20.02
2023-05-12T00:13:08.598Z,20.03
2023-05-12T00:13:22.624Z,20.03
2023-05-12T00:13:36.750Z,20.03
2023-05-12T00:13:50.877Z,20.03
2023-05-12T00:14:18.887Z,20.04
2023-05-12T00:14:32.878Z,20.02
2023-05-12T00:14:46.874Z,20.02
2023-05-12T00:15:00.868Z,20.02
2023-05-12T00:15:28.849Z,20.02
2023-05-12T00:15:42.841Z,20.01
2023-05-12T00:15:57.016Z,20.02
2023-05-12T00:16:11.144Z,20.02
2023-05-12T00:16:39.164Z,20.01
2023-05-12T00:16:53.215Z,20.01
2023-05-12T00:17:07.258Z,20.01
2023-05-12T00:17:21.342Z,20.01
2023-05-12T00:17:49.462Z,20.01
2023-05-12T00:18:03.536Z,20.01
2023-05-12T00:18:17.559Z,20.01
2023-05-12T00:18:31.546Z,19.99
2023-05-12T00:18:45.572Z,20.00
2023-05-12T00:18:59.625Z,20.00
2023-05-12T00:19:13.678Z,20.01
2023-05-12T00:19:27.661Z,20.00
2023-05-12T00:19:41.654Z,20.00
2023-05-12T00:20:09.634Z,20.00
2023-05-12T00:20:23.645Z,20.00
2023-05-12T00:20:37.620Z,20.01
2023-05-12T00:20:51.613Z,20.00
2023-05-12T00:21:19.618Z,19.99
2023-05-12T00:21:33.653Z,20.00
2023-05-12T00:21:47.647Z,19.99
2023-05-12T00:22:01.637Z,19.99
2023-05-12T00:22:29.614Z,19.98
2023-05-12T00:22:43.598Z,19.99
2023-05-12T00:22:57.607Z,19.99
2023-05-12T00:23:11.592Z,19.98
2023-05-12T00:23:39.535Z,19.99
2023-05-12T00:23:53.520Z,19.99
2023-05-12T00:24:07.519Z,19.99
2023-05-12T00:24:21.529Z,19.99
2023-05-12T00:24:49.494Z,19.98
2023-05-12T00:25:03.471Z,19.97
2023-05-12T00:25:17.468Z,19.99
2023-05-12T00:25:31.458Z,19.98
2023-05-12T00:25:59.443Z,19.99
2023-05-12T00:26:13.462Z,19.98
2023-05-12T00:26:27.449Z,19.98
2023-05-12T00:26:41.454Z,19.99
2023-05-12T00:27:09.460Z,19.99
2023-05-12T00:27:23.439Z,19.98
2023-05-12T00:27:37.424Z,19.99
2023-05-12T00:27:51.511Z,19.97
2023-05-12T00:28:19.478Z,19.97
2023-05-12T00:28:33.473Z,19.98
2023-05-12T00:28:47.564Z,19.96
2023-05-12T00:29:01.616Z,19.97
2023-05-12T00:29:29.603Z,19.98
2023-05-12T00:29:43.591Z,19.98
2023-05-12T00:29:57.616Z,19.98
2023-05-12T00:30:11.596Z,19.98
2023-05-12T00:30:39.546Z,19.97
2023-05-12T00:30:53.535Z,19.96
2023-05-12T00:31:07.581Z,19.97
2023-05-12T00:31:21.733Z,19.96
2023-05-12T00:31:49.775Z,19.96
2023-05-12T00:32:04.061Z,19.98
2023-05-12T00:32:18.168Z,19.97
2023-05-12T00:32:32.213Z,19.96
2023-05-12T00:33:00.237Z,19.96
2023-05-12T00:33:14.313Z,19.96
2023-05-12T00:33:28.333Z,19.97
2023-05-12T00:33:42.315Z,19.97
2023-05-12T00:34:10.279Z,19.97
2023-05-12T00:34:24.263Z,19.96
2023-05-12T00:34:38.248Z,19.96
2023-05-12T00:34:52.240Z,19.97
2023-05-12T00:35:20.199Z,19.96
2023-05-12T00:35:34.196Z,19.97
2023-05-12T00:35:48.179Z,19.96
2023-05-12T00:36:02.160Z,19.97
2023-05-12T00:36:16.184Z,19.96
2023-05-12T00:36:30.188Z,19.95
2023-05-12T00:36:44.182Z,19.96
2023-05-12T00:36:58.194Z,19.95
2023-05-12T00:37:12.201Z,19.95
2023-05-12T00:37:40.167Z,19.95
2023-05-12T00:37:54.153Z,19.96
2023-05-12T00:38:08.141Z,19.96
2023-05-12T00:38:22.129Z,19.95
2023-05-12T00:38:50.083Z,19.96
2023-05-12T00:39:04.084Z,19.94
2023-05-12T00:39:18.065Z,19.94
2023-05-12T00:39:32.060Z,19.94
2023-05-12T00:40:00.055Z,19.94
2023-05-12T00:40:14.048Z,19.94
2023-05-12T00:40:28.053Z,19.95
2023-05-12T00:40:42.031Z,19.94
2023-05-12T00:41:10.005Z,19.94
2023-05-12T00:41:24.037Z,19.94
2023-05-12T00:41:38.024Z,19.94
2023-05-12T00:41:52.016Z,19.94
2023-05-12T00:42:19.959Z,19.93
2023-05-12T00:42:33.941Z,19.94
2023-05-12T00:42:47.925Z,19.93
2023-05-12T00:43:02.037Z,19.94
2023-05-12T00:43:30.018Z,19.94
2023-05-12T00:43:44.008Z,19.92
2023-05-12T00:43:57.994Z,19.93
2023-05-12T00:44:11.990Z,19.93
2023-05-12T00:44:39.974Z,19.92
2023-05-12T00:44:53.969Z,19.92
2023-05-12T00:45:07.954Z,19.91
2023-05-12T00:45:21.968Z,19.92
2023-05-12T00:45:49.954Z,19.92
2023-05-12T00:46:04.100Z,19.93
2023-05-12T00:46:18.143Z,19.91
2023-05-12T00:46:32.207Z,19.92
2023-05-12T00:47:00.232Z,19.91
2023-05-12T00:47:14.216Z,19.91
2023-05-12T00:47:28.250Z,19.90
2023-05-12T00:47:42.258Z,19.91
2023-05-12T00:48:10.257Z,19.91
2023-05-12T00:48:24.296Z,19.92
2023-05-12T00:48:38.278Z,19.91
2023-05-12T00:48:52.269Z,19.91
2023-05-12T00:49:06.273Z,19.92
2023-05-12T00:49:20.284Z,19.91
2023-05-12T00:49:34.289Z,19.91
2023-05-12T00:49:48.293Z,19.91
2023-05-12T00:50:02.315Z,19.90
2023-05-12T00:50:30.280Z,19.90
2023-05-12T00:50:44.277Z,19.89
2023-05-12T00:50:58.285Z,19.89
2023-05-12T00:51:12.288Z,19.89
2023-05-12T00:51:40.258Z,19.89
2023-05-12T00:51:54.241Z,19.88
2023-05-12T00:52:08.236Z,19.88
2023-05-12T00:52:22.224Z,19.89
2023-05-12T00:52:50.214Z,19.89
2023-05-12T00:53:04.211Z,19.88
2023-05-12T00:53:18.200Z,19.88
2023-05-12T00:53:44.979Z,19.88
2023-05-12T00:53:59.997Z,19.87
2023-05-12T00:54:13.997Z,19.87
2023-05-12T00:54:27.989Z,19.88
2023-05-12T00:54:41.981Z,19.87
2023-05-12T00:55:09.939Z,19.88
2023-05-12T00:55:23.931Z,19.87
2023-05-12T00:55:37.933Z,19.87
2023-05-12T00:55:51.920Z,19.87
2023-05-12T00:56:19.940Z,19.86
2023-05-12T00:56:34.048Z,19.86
2023-05-12T00:56:48.050Z,19.87
2023-05-12T00:57:02.039Z,19.86
2023-05-12T00:57:29.989Z,19.86
2023-05-12T00:57:43.996Z,19.87
2023-05-12T00:57:58.001Z,19.88
2023-05-12T00:58:12.018Z,19.86
2023-05-12T00:58:40.081Z,19.86
2023-05-12T00:58:54.082Z,19.87
2023-05-12T00:59:08.077Z,19.86
2023-05-12T00:59:22.067Z,19.85
2023-05-12T00:59:50.043Z,19.85
2023-05-12T01:00:04.037Z,19.86
2023-05-12T01:00:18.321Z,19.85
2023-05-12T01:00:32.623Z,19.86
2023-05-12T01:01:00.639Z,19.85
2023-05-12T01:01:14.695Z,19.86
2023-05-12T01:01:28.738Z,19.85
2023-05-12T01:01:42.842Z,19.85
2023-05-12T01:02:10.997Z,19.85
2023-05-12T01:02:25.099Z,19.84
2023-05-12T01:02:39.232Z,19.85
2023-05-12T01:02:53.295Z,19.84
2023-05-12T01:03:21.404Z,19.86
2023-05-12T01:03:35.535Z,19.83
2023-05-12T01:03:49.640Z,19.84
2023-05-12T01:04:03.702Z,19.83
2023-05-12T01:04:31.684Z,19.82
2023-05-12T01:04:45.661Z,19.83
2023-05-12T01:04:59.645Z,19.83
2023-05-12T01:05:13.634Z,19.83
2023-05-12T01:05:41.633Z,19.83
2023-05-12T01:05:55.661Z,19.82
2023-05-12T01:06:09.679Z,19.83
2023-05-12T01:06:23.687Z,19.83
2023-05-12T01:06:51.633Z,19.82
2023-05-12T01:07:05.651Z,19.82
2023-05-12T01:07:19.661Z,19.82
2023-05-12T01:07:33.703Z,19.81
2023-05-12T01:08:01.728Z,19.82
2023-05-12T01:08:15.722Z,19.80
2023-05-12T01:08:29.703Z,19.81
2023-05-12T01:08:43.696Z,19.81
2023-05-12T01:09:11.713Z,19.80
2023-05-12T01:09:25.699Z,19.81
2023-05-12T01:09:39.687Z,19.80
2023-05-12T01:09:53.670Z,19.80
2023-05-12T01:10:21.961Z,19.80
2023-05-12T01:10:36.182Z,19.80
2023-05-12T01:10:50.177Z,19.79
2023-05-12T01:11:04.163Z,19.80
2023-05-12T01:11:32.129Z,19.79
2023-05-12T01:11:46.112Z,19.80
2023-05-12T01:12:00.132Z,19.81
2023-05-12T01:12:14.151Z,19.80
2023-05-12T01:12:42.113Z,19.78
2023-05-12T01:12:56.093Z,19.78
2023-05-12T01:13:10.089Z,19.78
2023-05-12T01:13:24.110Z,19.79
2023-05-12T01:13:52.054Z,19.78
2023-05-12T01:14:06.047Z,19.79
2023-05-12T01:14:20.034Z,19.77
2023-05-12T01:14:34.049Z,19.78
2023-05-12T01:15:02.011Z,19.78
2023-05-12T01:15:15.987Z,19.77
2023-05-12T01:15:29.974Z,19.78
2023-05-12T01:15:43.961Z,19.77
2023-05-12T01:16:11.925Z,19.78
2023-05-12T01:16:25.929Z,19.76
2023-05-12T01:16:39.902Z,19.76
2023-05-12T01:16:53.914Z,19.76
2023-05-12T01:17:21.976Z,19.78
2023-05-12T01:17:36.276Z,19.78
2023-05-12T01:17:50.502Z,19.78
2023-05-12T01:18:04.668Z,19.77
2023-05-12T01:18:32.731Z,19.77
2023-05-12T01:18:46.769Z,19.76
2023-05-12T01:19:00.813Z,19.77
2023-05-12T01:19:14.927Z,19.77
2023-05-12T01:19:42.976Z,19.76
2023-05-12T01:19:56.961Z,19.77
2023-05-12T01:20:10.954Z,19.77
2023-05-12T01:20:24.936Z,19.75
2023-05-12T01:20:52.891Z,19.76
2023-05-12T01:21:06.878Z,19.75
2023-05-12T01:21:20.887Z,19.77
2023-05-12T01:21:34.904Z,19.76
2023-05-12T01:22:02.869Z,19.75
2023-05-12T01:22:16.856Z,19.74
2023-05-12T01:22:30.849Z,19.76
2023-05-12T01:22:44.825Z,19.75
2023-05-12T01:23:12.773Z,19.75
2023-05-12T01:23:26.762Z,19.75
2023-05-12T01:23:40.740Z,19.76
2023-05-12T01:23:54.742Z,19.76
2023-05-12T01:24:22.705Z,19.76
2023-05-12T01:24:36.717Z,19.76
2023-05-12T01:24:50.723Z,19.75
2023-05-12T01:25:04.708Z,19.75
2023-05-12T01:25:32.681Z,19.75
2023-05-12T01:25:46.672Z,19.74
2023-05-12T01:26:00.680Z,19.74
2023-05-12T01:26:14.677Z,19.74
2023-05-12T01:26:42.664Z,19.74
2023-05-12T01:26:56.640Z,19.74
2023-05-12T01:27:10.634Z,19.73
2023-05-12T01:27:24.654Z,19.74
2023-05-12T01:27:38.650Z,19.73
2023-05-12T01:27:52.646Z,19.73
2023-05-12T01:28:06.636Z,19.73
2023-05-12T01:28:20.626Z,19.73
2023-05-12T01:28:34.649Z,19.73
2023-05-12T01:29:02.630Z,19.73
2023-05-12T01:29:16.620Z,19.73
2023-05-12T01:29:30.626Z,19.74
2023-05-12T01:29:44.618Z,19.72
2023-05-12T01:30:12.586Z,19.72
2023-05-12T01:30:26.596Z,19.72
2023-05-12T01:30:40.622Z,19.73
2023-05-12T01:30:54.636Z,19.73
2023-05-12T01:31:22.713Z,19.73
2023-05-12T01:31:36.793Z,19.71
2023-05-12T01:31:50.839Z,19.72
2023-05-12T01:32:04.843Z,19.72
2023-05-12T01:32:18.854Z,19.72
2023-05-12T01:32:32.971Z,19.71
2023-05-12T01:32:47.040Z,19.72
2023-05-12T01:33:01.071Z,19.72
2023-05-12T01:33:15.078Z,19.72
2023-05-12T01:33:43.053Z,19.72
2023-05-12T01:33:57.061Z,19.72
2023-05-12T01:34:11.053Z,19.70
2023-05-12T01:34:25.032Z,19.71
2023-05-12T01:34:52.998Z,19.71
2023-05-12T01:35:06.994Z,19.71
2023-05-12T01:35:21.003Z,19.72
2023-05-12T01:35:35.012Z,19.72
2023-05-12T01:36:02.979Z,19.71
2023-05-12T01:36:16.971Z,19.71
2023-05-12T01:36:30.963Z,19.72
2023-05-12T01:36:44.949Z,19.71
2023-05-12T01:37:12.972Z,19.71
2023-05-12T01:37:27.084Z,19.71
2023-05-12T01:37:41.094Z,19.70
2023-05-12T01:37:55.094Z,19.70
2023-05-12T01:38:23.054Z,19.70
2023-05-12T01:38:37.041Z,19.70
2023-05-12T01:38:51.074Z,19.69
2023-05-12T01:39:05.055Z,19.71
2023-05-12T01:39:33.019Z,19.70
2023-05-12T01:39:47.016Z,19.69
2023-05-12T01:40:01.029Z,19.70
2023-05-12T01:40:15.046Z,19.70
2023-05-12T01:40:43.002Z,19.69
2023-05-12T01:40:56.984Z,19.70
2023-05-12T01:41:10.996Z,19.70
2023-05-12T01:41:24.977Z,19.70
2023-05-12T01:41:52.925Z,19.68
2023-05-12T01:42:06.921Z,19.69
2023-05-12T01:42:20.935Z,19.69
2023-05-12T01:42:34.947Z,19.68
2023-05-12T01:43:02.907Z,19.69
2023-05-12T01:43:16.881Z,19.68
2023-05-12T01:43:30.878Z,19.69
2023-05-12T01:43:44.893Z,19.69
2023-05-12T01:44:12.847Z,19.68
2023-05-12T01:44:26.852Z,19.68
2023-05-12T01:44:40.852Z,19.68
2023-05-12T01:44:54.847Z,19.68
2023-05-12T01:45:22.798Z,19.67
2023-05-12T01:45:36.778Z,19.68
2023-05-12T01:45:50.808Z,19.67
2023-05-12T01:46:04.836Z,19.67
2023-05-12T01:46:32.872Z,19.67
2023-05-12T01:46:47.007Z,19.68
2023-05-12T01:47:01.092Z,19.67
2023-05-12T01:47:15.111Z,19.67
2023-05-12T01:47:43.121Z,19.67
2023-05-12T01:47:57.160Z,19.66
2023-05-12T01:48:11.208Z,19.67
2023-05-12T01:48:25.216Z,19.66
2023-05-12T01:48:53.189Z,19.67
2023-05-12T01:49:07.172Z,19.67
2023-05-12T01:49:21.398Z,19.66
2023-05-12T01:49:35.389Z,19.66
2023-05-12T01:49:49.384Z,19.66
2023-05-12T01:50:03.367Z,19.66
2023-05-12T01:50:17.421Z,19.67
2023-05-12T01:50:31.452Z,19.66
2023-05-12T01:50:45.459Z,19.66
2023-05-12T01:51:13.441Z,19.66
2023-05-12T01:51:27.444Z,19.67
2023-05-12T01:51:41.540Z,19.67
2023-05-12T01:51:55.538Z,19.66
2023-05-12T01:52:23.506Z,19.66
2023-05-12T01:52:37.502Z,19.66
2023-05-12T01:52:51.545Z,19.65
2023-05-12T01:53:05.536Z,19.66
2023-05-12T01:53:33.529Z,19.66
2023-05-12T01:53:47.513Z,19.65
2023-05-12T01:54:01.562Z,19.66
2023-05-12T01:54:15.551Z,19.66
2023-05-12T01:54:43.508Z,19.65
2023-05-12T01:54:57.511Z,19.66
2023-05-12T01:55:11.605Z,19.64
2023-05-12T01:55:25.622Z,19.65
2023-05-12T01:55:53.601Z,19.65
2023-05-12T01:56:07.586Z,19.65
2023-05-12T01:56:21.683Z,19.65
2023-05-12T01:56:35.660Z,19.64
2023-05-12T01:57:03.619Z,19.65
2023-05-12T01:57:17.612Z,19.65
2023-05-12T01:57:31.608Z,19.65
2023-05-12T01:57:45.603Z,19.65
2023-05-12T01:58:13.578Z,19.64
2023-05-12T01:58:27.563Z,19.64
2023-05-12T01:58:41.559Z,19.64
2023-05-12T01:58:55.631Z,19.64
2023-05-12T01:59:23.667Z,19.63
2023-05-12T01:59:37.707Z,19.63
2023-05-12T01:59:51.763Z,19.63
2023-05-12T02:00:05.775Z,19.63
2023-05-12T02:00:33.758Z,19.64
2023-05-12T02:00:47.741Z,19.63
2023-05-12T02:01:01.738Z,19.64
2023-05-12T02:01:15.750Z,19.63
2023-05-12T02:01:43.800Z,19.62
2023-05-12T02:01:57.932Z,19.64
2023-05-12T02:02:12.082Z,19.63
2023-05-12T02:02:26.258Z,19.62
2023-05-12T02:02:42.284Z,19.63
2023-05-12T02:02:54.752Z,19.62
2023-05-12T02:03:08.880Z,19.63
2023-05-12T02:03:23.134Z,19.63
2023-05-12T02:03:37.399Z,19.63
2023-05-12T02:04:05.528Z,19.64
2023-05-12T02:04:19.599Z,19.63
2023-05-12T02:04:33.585Z,19.63
2023-05-12T02:04:47.571Z,19.63
2023-05-12T02:05:15.548Z,19.62
2023-05-12T02:05:29.581Z,19.62
2023-05-12T02:05:43.580Z,19.62
2023-05-12T02:05:57.563Z,19.62
2023-05-12T02:06:25.498Z,19.63
2023-05-12T02:06:39.504Z,19.61
2023-05-12T02:06:53.495Z,19.62
2023-05-12T02:07:07.503Z,19.62
2023-05-12T02:07:35.490Z,19.61
2023-05-12T02:07:49.491Z,19.63
2023-05-12T02:08:03.494Z,19.62
2023-05-12T02:08:17.484Z,19.61
2023-05-12T02:08:45.426Z,19.62
2023-05-12T02:08:59.411Z,19.61
2023-05-12T02:09:13.417Z,19.61
2023-05-12T02:09:27.401Z,19.60
2023-05-12T02:09:55.352Z,19.60
2023-05-12T02:10:09.338Z,19.61
2023-05-12T02:10:23.333Z,19.61
2023-05-12T02:10:37.318Z,19.61
2023-05-12T02:11:05.285Z,19.61
2023-05-12T02:11:19.285Z,19.60
2023-05-12T02:11:33.271Z,19.60
2023-05-12T02:11:47.250Z,19.59
2023-05-12T02:12:15.199Z,19.61
2023-05-12T02:12:29.202Z,19.60
2023-05-12T02:12:43.198Z,19.60
2023-05-12T02:12:57.196Z,19.60
2023-05-12T02:13:25.165Z,19.59
2023-05-12T02:13:39.208Z,19.59
2023-05-12T02:13:53.241Z,19.59
2023-05-12T02:14:07.246Z,19.60
2023-05-12T02:14:35.214Z,19.58
2023-05-12T02:14:49.219Z,19.58
2023-05-12T02:15:03.256Z,19.59
2023-05-12T02:15:17.263Z,19.58
2023-05-12T02:15:31.253Z,19.58
2023-05-12T02:15:45.230Z,19.57
2023-05-12T02:15:59.262Z,19.58
2023-05-12T02:16:13.322Z,19.59
2023-05-12T02:16:27.438Z,19.58
2023-05-12T02:16:55.459Z,19.58
2023-05-12T02:17:09.474Z,19.58
2023-05-12T02:17:23.475Z,19.57
2023-05-12T02:17:37.516Z,19.57
2023-05-12T02:18:05.507Z,19.58
2023-05-12T02:18:19.534Z,19.58
2023-05-12T02:18:33.616Z,19.57
2023-05-12T02:18:47.677Z,19.57
2023-05-12T02:19:15.709Z,19.56
2023-05-12T02:19:29.697Z,19.57
2023-05-12T02:19:43.687Z,19.56
2023-05-12T02:19:57.686Z,19.57
2023-05-12T02:20:25.641Z,19.56
2023-05-12T02:20:39.629Z,19.57
2023-05-12T02:20:53.627Z,19.58
2023-05-12T02:21:07.632Z,19.57
2023-05-12T02:21:35.598Z,19.56
2023-05-12T02:21:49.593Z,19.56
2023-05-12T02:22:03.573Z,19.57
2023-05-12T02:22:17.561Z,19.58
2023-05-12T02:22:45.513Z,19.57
2023-05-12T02:22:59.504Z,19.57
2023-05-12T02:23:13.502Z,19.57
2023-05-12T02:23:27.483Z,19.57
2023-05-12T02:23:55.436Z,19.57
2023-05-12T02:24:09.446Z,19.57
2023-05-12T02:24:23.433Z,19.56
2023-05-12T02:24:37.435Z,19.56
2023-05-12T02:25:05.401Z,19.56
2023-05-12T02:25:19.389Z,19.56
2023-05-12T02:25:33.388Z,19.56
2023-05-12T02:25:47.374Z,19.57
2023-05-12T02:26:15.333Z,19.56
2023-05-12T02:26:29.387Z,19.56
2023-05-12T02:26:43.383Z,19.56
2023-05-12T02:26:57.377Z,19.55
2023-05-12T02:27:25.333Z,19.55
2023-05-12T02:27:39.361Z,19.56
2023-05-12T02:27:53.375Z,19.55
2023-05-12T02:28:07.365Z,19.55
2023-05-12T02:28:35.316Z,19.55
2023-05-12T02:28:49.309Z,19.56
2023-05-12T02:29:03.307Z,19.55
2023-05-12T02:29:17.325Z,19.55
2023-05-12T02:29:45.273Z,19.55
2023-05-12T02:29:59.252Z,19.54
2023-05-12T02:30:13.239Z,19.54
2023-05-12T02:30:27.236Z,19.54
2023-05-12T02:30:55.218Z,19.55
2023-05-12T02:31:09.231Z,19.55
2023-05-12T02:31:23.251Z,19.55
2023-05-12T02:31:37.307Z,19.55
2023-05-12T02:32:05.410Z,19.54
2023-05-12T02:32:19.498Z,19.54
2023-05-12T02:32:33.547Z,19.54
2023-05-12T02:32:47.597Z,19.53
2023-05-12T02:33:01.623Z,19.53
2023-05-12T02:33:15.677Z,19.53
2023-05-12T02:33:29.668Z,19.53
2023-05-12T02:33:43.651Z,19.54
2023-05-12T02:33:57.646Z,19.53
2023-05-12T02:34:25.607Z,19.53
2023-05-12T02:34:39.605Z,19.53
2023-05-12T02:34:53.598Z,19.54
2023-05-12T02:35:07.586Z,19.54
2023-05-12T02:35:35.557Z,19.53
2023-05-12T02:35:49.537Z,19.52
2023-05-12T02:36:03.533Z,19.52
2023-05-12T02:36:17.545Z,19.53
2023-05-12T02:36:45.507Z,19.53
2023-05-12T02:36:59.489Z,19.53
2023-05-12T02:37:13.484Z,19.53
2023-05-12T02:37:27.492Z,19.51
2023-05-12T02:37:55.455Z,19.51
2023-05-12T02:38:09.454Z,19.53
2023-05-12T02:38:23.459Z,19.52
2023-05-12T02:38:37.446Z,19.52
2023-05-12T02:39:05.403Z,19.52
2023-05-12T02:39:19.398Z,19.51
2023-05-12T02:39:33.429Z,19.51
2023-05-12T02:39:47.426Z,19.52
2023-05-12T02:40:15.427Z,19.50
2023-05-12T02:40:29.441Z,19.51
2023-05-12T02:40:43.443Z,19.52
2023-05-12T02:40:57.444Z,19.50
2023-05-12T02:41:25.427Z,19.51
2023-05-12T02:41:39.424Z,19.50
2023-05-12T02:41:53.418Z,19.50
2023-05-12T02:42:07.401Z,19.51
2023-05-12T02:42:35.396Z,19.51
2023-05-12T02:42:49.439Z,19.52
2023-05-12T02:43:03.423Z,19.50
2023-05-12T02:43:17.412Z,19.50
2023-05-12T02:43:45.379Z,19.49
2023-05-12T02:43:59.356Z,19.50
2023-05-12T02:44:13.352Z,19.50
2023-05-12T02:44:27.410Z,19.50
2023-05-12T02:44:55.373Z,19.50
2023-05-12T02:45:09.367Z,19.51
2023-05-12T02:45:23.353Z,19.49
2023-05-12T02:45:37.378Z,19.50
2023-05-12T02:45:51.470Z,19.50
2023-05-12T02:46:05.589Z,19.50
2023-05-12T02:46:19.772Z,19.50
2023-05-12T02:46:33.804Z,19.49
2023-05-12T02:46:47.793Z,19.49
2023-05-12T02:47:15.777Z,19.48
2023-05-12T02:47:29.804Z,19.49
2023-05-12T02:47:43.850Z,19.50
2023-05-12T02:47:57.893Z,19.50
2023-05-12T02:48:25.867Z,19.49
2023-05-12T02:48:39.862Z,19.49
2023-05-12T02:48:53.864Z,19.49
2023-05-12T02:49:07.872Z,19.49
2023-05-12T02:49:35.849Z,19.49
2023-05-12T02:49:49.836Z,19.49
2023-05-12T02:50:03.826Z,19.49
2023-05-12T02:50:17.858Z,19.48
2023-05-12T02:50:45.859Z,19.49
2023-05-12T02:50:59.858Z,19.48
2023-05-12T02:51:13.857Z,19.49
2023-05-12T02:51:27.876Z,19.49
2023-05-12T02:51:55.858Z,19.48
2023-05-12T02:52:09.859Z,19.49
2023-05-12T02:52:23.856Z,19.50
2023-05-12T02:52:37.840Z,19.49
2023-05-12T02:53:05.816Z,19.48
2023-05-12T02:53:19.846Z,19.47
2023-05-12T02:53:33.828Z,19.48
2023-05-12T02:53:47.815Z,19.48
2023-05-12T02:54:15.752Z,19.49
2023-05-12T02:54:29.743Z,19.48
2023-05-12T02:54:43.736Z,19.49
2023-05-12T02:54:57.743Z,19.47
2023-05-12T02:55:25.716Z,19.47
2023-05-12T02:55:39.718Z,19.47
2023-05-12T02:55:53.704Z,19.47
2023-05-12T02:56:07.725Z,19.48
2023-05-12T02:56:35.683Z,19.47
2023-05-12T02:56:49.657Z,19.47
2023-05-12T02:57:03.642Z,19.47
2023-05-12T02:57:17.650Z,19.47
2023-05-12T02:57:45.601Z,19.48
2023-05-12T02:57:59.604Z,19.46
2023-05-12T02:58:13.579Z,19.47
2023-05-12T02:58:27.581Z,19.45
2023-05-12T02:58:55.531Z,19.46
2023-05-12T02:59:09.517Z,19.46
2023-05-12T02:59:23.510Z,19.47
2023-05-12T02:59:37.524Z,19.46
2023-05-12T03:00:05.484Z,19.46
2023-05-12T03:00:19.639Z,19.48
2023-05-12T03:00:33.752Z,19.47
2023-05-12T03:00:51.971Z,19.48
2023-05-12T03:01:15.575Z,19.45
2023-05-12T03:01:29.665Z,19.46
2023-05-12T03:01:43.735Z,19.46
2023-05-12T03:01:57.781Z,19.46
2023-05-12T03:02:25.850Z,19.46
2023-05-12T03:02:40.007Z,19.46
2023-05-12T03:02:54.165Z,19.46
2023-05-12T03:03:08.383Z,19.46
2023-05-12T03:03:22.497Z,19.45
2023-05-12T03:03:36.648Z,19.46
2023-05-12T03:03:50.805Z,19.44
2023-05-12T03:04:04.949Z,19.45
2023-05-12T03:04:18.961Z,19.45
2023-05-12T03:04:46.919Z,19.45
2023-05-12T03:05:00.895Z,19.44
2023-05-12T03:05:14.888Z,19.44
2023-05-12T03:05:28.879Z,19.44
2023-05-12T03:05:56.850Z,19.45
2023-05-12T03:06:10.893Z,19.45
2023-05-12T03:06:24.882Z,19.45
2023-05-12T03:06:38.865Z,19.44
2023-05-12T03:07:06.850Z,19.44
2023-05-12T03:07:20.840Z,19.44
2023-05-12T03:07:34.835Z,19.44
2023-05-12T03:07:48.834Z,19.43
2023-05-12T03:08:16.785Z,19.44
2023-05-12T03:08:30.776Z,19.44
2023-05-12T03:08:44.761Z,19.43
2023-05-12T03:08:58.754Z,19.43
2023-05-12T03:09:26.726Z,19.43
2023-05-12T03:09:40.712Z,19.43
2023-05-12T03:09:54.716Z,19.43
2023-05-12T03:10:08.712Z,19.42
2023-05-12T03:10:36.695Z,19.43
2023-05-12T03:10:50.690Z,19.44
2023-05-12T03:11:04.674Z,19.42
2023-05-12T03:11:18.674Z,19.43
2023-05-12T03:11:46.636Z,19.43
2023-05-12T03:12:00.637Z,19.42
2023-05-12T03:12:14.668Z,19.42
2023-05-12T03:12:28.662Z,19.41
2023-05-12T03:12:56.622Z,19.42
2023-05-12T03:13:10.604Z,19.42
2023-05-12T03:13:24.602Z,19.41
2023-05-12T03:13:38.605Z,19.43
2023-05-12T03:14:06.573Z,19.40
2023-05-12T03:14:20.566Z,19.42
2023-05-12T03:14:34.570Z,19.42
2023-05-12T03:14:48.630Z,19.41
2023-05-12T03:15:16.586Z,19.42
2023-05-12T03:15:30.572Z,19.43
2023-05-12T03:15:44.561Z,19.42
2023-05-12T03:15:58.580Z,19.42
2023-05-12T03:16:26.560Z,19.42
2023-05-12T03:16:40.629Z,19.41
2023-05-12T03:16:54.696Z,19.41
2023-05-12T03:17:08.742Z,19.41
2023-05-12T03:17:36.856Z,19.41
2023-05-12T03:17:50.991Z,19.41
2023-05-12T03:18:05.107Z,19.41
2023-05-12T03:18:19.162Z,19.41
2023-05-12T03:18:47.163Z,19.42
2023-05-12T03:19:01.218Z,19.40
2023-05-12T03:19:15.251Z,19.41
2023-05-12T03:19:29.236Z,19.39
2023-05-12T03:19:57.195Z,19.41
2023-05-12T03:20:11.205Z,19.41
2023-05-12T03:20:25.212Z,19.40
2023-05-12T03:20:39.213Z,19.41
2023-05-12T03:20:53.226Z,19.41
2023-05-12T03:21:07.220Z,19.42
2023-05-12T03:21:21.208Z,19.41
2023-05-12T03:21:35.204Z,19.40
2023-05-12T03:21:49.209Z,19.41
2023-05-12T03:22:17.156Z,19.41
2023-05-12T03:22:31.160Z,19.39
2023-05-12T03:22:45.140Z,19.40
2023-05-12T03:22:59.131Z,19.40
2023-05-12T03:23:27.107Z,19.40
2023-05-12T03:23:41.087Z,19.40
2023-05-12T03:23:55.086Z,19.40
2023-05-12T03:24:09.077Z,19.40
2023-05-12T03:24:37.024Z,19.40
2023-05-12T03:24:51.023Z,19.39
2023-05-12T03:25:05.012Z,19.40
2023-05-12T03:25:19.002Z,19.39
2023-05-12T03:25:46.984Z,19.39
2023-05-12T03:26:00.974Z,19.39
2023-05-12T03:26:14.974Z,19.38
2023-05-12T03:26:28.972Z,19.38
2023-05-12T03:26:56.933Z,19.38
2023-05-12T03:27:10.926Z,19.40
2023-05-12T03:27:24.927Z,19.39
2023-05-12T03:27:38.936Z,19.38
2023-05-12T03:28:06.922Z,19.40
2023-05-12T03:28:20.923Z,19.39
2023-05-12T03:28:34.924Z,19.39
2023-05-12T03:28:48.940Z,19.38
2023-05-12T03:29:16.900Z,19.38
2023-05-12T03:29:30.911Z,19.38
2023-05-12T03:29:44.893Z,19.38
2023-05-12T03:29:58.922Z,19.38
2023-05-12T03:30:26.881Z,19.38
2023-05-12T03:30:40.888Z,19.38
2023-05-12T03:30:55.037Z,19.39
2023-05-12T03:31:09.128Z,19.39
2023-05-12T03:31:37.161Z,19.39
2023-05-12T03:31:51.310Z,19.39
2023-05-12T03:32:05.432Z,19.39
2023-05-12T03:32:19.455Z,19.38
2023-05-12T03:32:47.475Z,19.38
2023-05-12T03:33:01.659Z,19.37
2023-05-12T03:33:15.737Z,19.38
2023-05-12T03:33:29.757Z,19.39
2023-05-12T03:33:43.750Z,19.39
2023-05-12T03:33:57.750Z,19.38
2023-05-12T03:34:11.745Z,19.38
2023-05-12T03:34:25.734Z,19.38
2023-05-12T03:34:39.709Z,19.39
2023-05-12T03:35:07.665Z,19.39
2023-05-12T03:35:21.664Z,19.39
2023-05-12T03:35:35.660Z,19.39
2023-05-12T03:35:49.665Z,19.39
2023-05-12T03:36:17.626Z,19.38
2023-05-12T03:36:31.612Z,19.38
2023-05-12T03:36:45.611Z,19.37
2023-05-12T03:36:59.590Z,19.39
2023-05-12T03:37:27.564Z,19.39
2023-05-12T03:37:41.565Z,19.39
2023-05-12T03:37:55.575Z,19.39
2023-05-12T03:38:09.570Z,19.38
2023-05-12T03:38:37.537Z,19.37
2023-05-12T03:38:51.528Z,19.38
2023-05-12T03:39:05.572Z,19.39
2023-05-12T03:39:19.573Z,19.38
2023-05-12T03:39:47.517Z,19.36
2023-05-12T03:40:01.539Z,19.37
2023-05-12T03:40:15.545Z,19.38
2023-05-12T03:40:29.555Z,19.37
2023-05-12T03:40:57.510Z,19.37
2023-05-12T03:41:11.490Z,19.37
2023-05-12T03:41:25.474Z,19.38
2023-05-12T03:41:39.472Z,19.36